Time;durP1;ratioP1;P1;durP2;ratioP2;P2;SDS_P1;SDS_P2;PMS_P1;PMS_P2;Temp;Humidity;BMP_temperature;BMP_pressure;BME280_temperature;BME280_humidity;BME280_pressure;Samples;Min_cycle;Max_cycle;Signal;HPM_P1;HPM_P2
2022/01/27 00:00:43;;;;;;;21.23;9.20;;;;;;;5.62;90.27;102651.53;5033623;28;20075;-73
2022/01/27 00:05:35;;;;;;;18.90;9.55;;;;;;;5.61;89.56;102639.25;5047513;28;20051;-74
2022/01/27 00:08:11;;;;;;;21.40;9.93;;;;;;;5.61;90.26;102630.50;5053421;28;20036;-74
2022/01/27 00:13:13;;;;;;;21.80;9.93;;;;;;;5.62;90.66;102634.91;5052777;28;20396;-74
2022/01/27 00:15:40;;;;;;;22.73;8.95;;;;;;;5.61;90.39;102620.84;5053046;28;20079;-73
2022/01/27 00:18:13;;;;;;;21.42;9.90;;;;;;;5.61;91.20;102625.25;5052960;28;20060;-74
2022/01/27 00:20:39;;;;;;;19.95;10.70;;;;;;;5.58;91.40;102631.38;5053212;28;20027;-74
2022/01/27 00:23:04;;;;;;;24.05;9.77;;;;;;;5.60;90.71;102628.75;5052737;28;20033;-74
2022/01/27 00:25:29;;;;;;;19.70;9.88;;;;;;;5.65;90.25;102633.16;5038119;28;20022;-74
2022/01/27 00:27:55;;;;;;;20.08;9.82;;;;;;;5.70;89.38;102646.31;5045624;28;20083;-73
2022/01/27 00:30:20;;;;;;;23.05;10.70;;;;;;;5.75;88.82;102634.06;5053044;28;20036;-73
2022/01/27 00:32:45;;;;;;;26.02;10.88;;;;;;;5.81;87.16;102634.09;5053162;28;20380;-73
2022/01/27 00:35:11;;;;;;;20.48;10.27;;;;;;;5.84;87.71;102631.47;5044406;28;20451;-73
2022/01/27 00:37:37;;;;;;;26.30;12.32;;;;;;;5.82;86.89;102627.97;5045059;28;20041;-74
2022/01/27 00:40:04;;;;;;;24.40;11.32;;;;;;;5.88;85.65;102604.34;5032678;28;20031;-73
2022/01/27 00:42:30;;;;;;;28.10;13.00;;;;;;;5.93;85.21;102620.09;5033132;28;20075;-73
2022/01/27 00:44:57;;;;;;;26.60;13.13;;;;;;;5.92;85.19;102602.59;5038321;28;20075;-73
2022/01/27 00:47:23;;;;;;;29.15;13.13;;;;;;;5.89;85.13;102619.22;5052309;28;20065;-73
2022/01/27 00:49:48;;;;;;;23.25;12.05;;;;;;;5.94;84.70;102618.38;5052711;28;20107;-73
2022/01/27 00:52:20;;;;;;;25.90;13.30;;;;;;;5.94;84.64;102626.25;5052692;28;20067;-74
2022/01/27 00:54:46;;;;;;;23.75;12.25;;;;;;;5.97;84.51;102599.97;5052490;28;20790;-73
2022/01/27 00:57:22;;;;;;;28.75;13.20;;;;;;;6.00;84.25;102631.59;5052367;28;20029;-74
2022/01/27 01:00:08;;;;;;;28.65;12.60;;;;;;;5.98;84.74;102626.28;5052253;28;20025;-74
2022/01/27 01:02:39;;;;;;;25.73;12.38;;;;;;;5.94;85.01;102606.09;5051966;28;20033;-73
2022/01/27 01:05:58;;;;;;;24.73;12.93;;;;;;;5.92;85.12;102576.31;5052507;28;20105;-74
2022/01/27 01:08:07;;;;;;;27.95;12.77;;;;;;;5.93;85.25;102559.63;5047403;28;20067;-73
2022/01/27 01:11:11;;;;;;;27.23;12.85;;;;;;;5.91;85.71;102543.00;5051436;28;20102;-74
2022/01/27 01:15:48;;;;;;;26.63;12.63;;;;;;;5.89;85.34;102545.59;5052673;28;20037;-73
2022/01/27 01:21:19;;;;;;;25.73;12.50;;;;;;;5.86;85.99;102561.38;5052216;28;20102;-73
2022/01/27 01:29:52;;;;;;;31.63;13.30;;;;;;;5.76;86.86;102532.44;5051943;28;20120;-74
2022/01/27 01:32:33;;;;;;;28.90;13.02;;;;;;;5.65;88.22;102537.66;5031855;28;20103;-74
2022/01/27 01:35:00;;;;;;;29.67;13.93;;;;;;;5.58;88.37;102523.63;5032203;28;20409;-73
2022/01/27 01:37:25;;;;;;;29.70;13.13;;;;;;;5.54;88.81;102521.88;5032243;28;20113;-73
2022/01/27 01:39:50;;;;;;;28.73;13.13;;;;;;;5.52;88.15;102524.47;5051179;28;20052;-74
2022/01/27 01:42:16;;;;;;;27.75;13.32;;;;;;;5.48;89.19;102516.59;5052391;28;20056;-74
2022/01/27 01:44:43;;;;;;;30.67;13.20;;;;;;;5.44;88.22;102525.34;5052069;28;20037;-73
2022/01/27 01:47:08;;;;;;;29.02;12.43;;;;;;;5.40;88.74;102521.81;5052241;28;20029;-73
2022/01/27 01:49:34;;;;;;;29.88;13.52;;;;;;;5.33;89.46;102541.03;5051346;28;20099;-75
2022/01/27 01:52:05;;;;;;;28.80;12.43;;;;;;;5.31;89.39;102542.78;5052147;28;20051;-73
2022/01/27 01:54:31;;;;;;;;;;;;;;;5.25;89.68;102531.34;5056267;28;20031;-75
2022/01/27 01:56:57;;;;;;;28.63;12.52;;;;;;;5.17;90.22;102513.84;5055856;28;20283;-73
2022/01/27 01:59:22;;;;;;;24.08;12.55;;;;;;;5.07;90.18;102528.66;5055431;28;20082;-74
2022/01/27 02:01:47;;;;;;;26.25;12.38;;;;;;;5.00;91.05;102519.88;5055391;28;20041;-74
2022/01/27 02:04:13;;;;;;;27.27;12.85;;;;;;;5.04;91.25;102502.41;5055277;28;20031;-74
2022/01/27 02:06:46;;;;;;;28.58;12.85;;;;;;;4.99;91.75;102519.88;5055696;28;20025;-73
2022/01/27 02:19:59;;;;;;;32.22;13.85;;;;;;;4.92;93.30;102538.22;5055615;28;20048;-75
2022/01/27 02:22:25;;;;;;;27.73;12.23;;;;;;;4.92;92.72;102529.44;5054756;28;20060;-74
2022/01/27 02:24:51;;;;;;;29.13;12.98;;;;;;;4.91;93.13;102536.44;5055127;28;20113;-73
2022/01/27 02:27:17;;;;;;;29.85;12.57;;;;;;;4.92;93.76;102529.44;5055429;28;20025;-75
2022/01/27 02:29:44;;;;;;;27.40;12.35;;;;;;;4.95;93.10;102523.31;5055289;28;20055;-73
2022/01/27 02:32:11;;;;;;;24.83;11.68;;;;;;;4.98;93.79;102518.13;5054446;28;20391;-74
2022/01/27 02:34:36;;;;;;;27.02;11.57;;;;;;;5.04;93.15;102526.91;5054708;28;20115;-74
2022/01/27 02:37:02;;;;;;;24.50;11.25;;;;;;;5.09;92.90;102527.78;5055078;28;20112;-75
2022/01/27 02:39:29;;;;;;;22.30;10.88;;;;;;;5.13;92.58;102522.53;5055085;28;20025;-73
2022/01/27 02:41:54;;;;;;;22.88;11.57;;;;;;;5.17;92.71;102504.19;5055095;28;20106;-74
2022/01/27 02:44:31;;;;;;;24.70;10.65;;;;;;;5.22;92.62;102520.00;5054645;28;20060;-73
2022/01/27 02:46:57;;;;;;;24.65;11.05;;;;;;;5.31;92.05;102522.66;5054850;28;20033;-74
2022/01/27 02:49:22;;;;;;;29.52;10.77;;;;;;;5.37;91.74;102512.16;5054773;28;20104;-74
2022/01/27 02:51:47;;;;;;;22.45;10.52;;;;;;;5.41;91.83;102502.56;5054643;28;20049;-74
2022/01/27 02:54:13;;;;;;;24.17;10.30;;;;;;;5.41;91.55;102492.91;5054047;28;20103;-74
2022/01/27 02:56:44;;;;;;;27.90;10.07;;;;;;;5.45;91.14;102490.28;5054882;28;20033;-75
2022/01/27 02:59:09;;;;;;;27.38;9.98;;;;;;;5.47;92.02;102471.00;5054502;28;20021;-72
2022/01/27 03:01:35;;;;;;;21.27;9.45;;;;;;;5.53;91.29;102450.00;5054893;28;20460;-75
2022/01/27 03:04:00;;;;;;;22.67;9.45;;;;;;;5.52;91.92;102458.75;5053314;28;20065;-73
2022/01/27 03:06:25;;;;;;;18.42;9.15;;;;;;;5.52;91.44;102458.75;5054345;28;20013;-74
2022/01/27 03:08:50;;;;;;;24.75;9.45;;;;;;;5.51;92.39;102436.03;5054435;28;20461;-74
2022/01/27 03:11:17;;;;;;;21.98;9.43;;;;;;;5.55;92.01;102443.03;5054618;28;20028;-74
2022/01/27 03:13:43;;;;;;;22.45;8.68;;;;;;;5.57;91.69;102427.25;5039830;28;20065;-74
2022/01/27 03:16:09;;;;;;;24.50;9.05;;;;;;;5.52;92.14;102440.38;5052918;28;20483;-74
2022/01/27 03:18:35;;;;;;;20.85;8.95;;;;;;;5.54;92.58;102436.00;5036301;28;20506;-74
2022/01/27 03:21:01;;;;;;;22.60;8.77;;;;;;;5.55;93.40;102427.25;5053958;28;20079;-74
2022/01/27 03:23:27;;;;;;;19.83;9.27;;;;;;;5.55;92.81;102429.00;5054416;28;20025;-73
2022/01/27 03:25:52;;;;;;;20.05;9.23;;;;;;;5.54;93.53;102417.63;5053218;28;20583;-73
2022/01/27 03:28:19;;;;;;;22.83;8.77;;;;;;;5.55;94.28;102424.63;5054172;28;20440;-74
2022/01/27 03:30:45;;;;;;;19.17;8.55;;;;;;;5.54;94.30;102416.75;5054360;28;20033;-73
2022/01/27 03:33:10;;;;;;;20.05;8.07;;;;;;;5.50;95.03;102423.75;5054240;28;20029;-75
2022/01/27 03:35:35;;;;;;;18.02;7.78;;;;;;;5.53;94.11;102415.00;5053397;28;20435;-73
2022/01/27 03:38:01;;;;;;;17.67;7.88;;;;;;;5.48;94.47;102422.84;5053733;28;20043;-75
2022/01/27 03:40:26;;;;;;;21.27;7.93;;;;;;;5.48;94.93;102404.47;5053876;28;20029;-74
2022/01/27 03:43:03;;;;;;;18.73;8.30;;;;;;;5.48;94.53;102404.47;5053940;28;20528;-74
2022/01/27 03:45:29;;;;;;;30.08;8.23;;;;;;;5.46;95.39;102381.69;5044025;28;20392;-73
2022/01/27 03:47:54;;;;;;;20.00;8.32;;;;;;;5.44;95.35;102388.72;5053753;28;20029;-73
2022/01/27 03:50:19;;;;;;;19.15;8.13;;;;;;;5.44;95.57;102381.69;5053817;28;20017;-73
2022/01/27 03:52:45;;;;;;;26.60;8.45;;;;;;;5.48;95.77;102375.56;5053308;28;20091;-74
2022/01/27 03:55:11;;;;;;;28.60;8.70;;;;;;;5.58;95.71;102373.81;5053266;28;20041;-75
2022/01/27 03:57:36;;;;;;;25.58;8.60;;;;;;;5.63;95.52;102376.47;5053093;28;20036;-74
2022/01/27 04:00:04;;;;;;;21.27;8.45;;;;;;;5.69;96.05;102373.81;5053822;28;20139;-74
2022/01/27 04:02:29;;;;;;;23.13;8.20;;;;;;;5.73;96.11;102362.44;5053351;28;20086;-75
2022/01/27 04:04:54;;;;;;;25.27;8.55;;;;;;;5.76;96.06;102361.56;5053559;28;20511;-75
2022/01/27 04:07:19;;;;;;;27.58;8.98;;;;;;;5.81;96.14;102368.56;5052608;28;20497;-73
2022/01/27 04:09:45;;;;;;;23.00;8.40;;;;;;;5.89;95.59;102374.69;5053420;28;20035;-75
2022/01/27 04:12:10;;;;;;;24.90;8.65;;;;;;;5.95;95.49;102379.09;5053209;28;20036;-73
2022/01/27 04:14:36;;;;;;;20.00;8.43;;;;;;;6.00;95.43;102379.13;5053028;28;20527;-74
2022/01/27 04:17:02;;;;;;;24.80;8.77;;;;;;;5.99;95.67;102362.44;5053004;28;20035;-74
2022/01/27 04:19:28;;;;;;;23.67;8.05;;;;;;;6.04;94.97;102362.47;5052685;28;20033;-74
2022/01/27 04:21:53;;;;;;;19.38;7.57;;;;;;;6.08;94.71;102364.19;5053100;28;20028;-75
2022/01/27 04:24:18;;;;;;;22.40;8.38;;;;;;;6.16;95.21;102356.28;5053043;28;20033;-74
2022/01/27 04:26:49;;;;;;;22.58;8.82;;;;;;;6.17;94.49;102358.06;5052796;28;20478;-73
2022/01/27 04:29:16;;;;;;;24.27;8.85;;;;;;;6.17;94.61;102356.28;5052631;28;20040;-74
2022/01/27 04:31:44;;;;;;;20.80;8.15;;;;;;;6.23;95.12;102347.53;5052935;28;20024;-74
2022/01/27 04:34:11;;;;;;;24.67;7.60;;;;;;;6.26;94.77;102344.88;5052781;28;20536;-75
2022/01/27 04:36:38;;;;;;;28.38;8.57;;;;;;;6.29;94.84;102343.97;5052929;28;20108;-73
2022/01/27 04:39:26;;;;;;;21.90;7.35;;;;;;;6.32;94.84;102331.69;5051821;28;20508;-73
2022/01/27 04:49:09;;;;;;;22.25;7.43;;;;;;;6.39;94.50;102337.81;5052451;28;20059;-74
2022/01/27 04:51:35;;;;;;;25.75;8.10;;;;;;;6.37;95.32;102343.09;5052176;28;20037;-75
2022/01/27 04:56:27;;;;;;;21.00;7.65;;;;;;;6.38;94.85;102333.41;5052867;28;20036;-74
2022/01/27 04:58:58;;;;;;;26.00;8.15;;;;;;;6.42;94.93;102348.34;5052000;28;20036;-73
2022/01/27 05:01:31;;;;;;;20.13;7.63;;;;;;;6.39;95.36;102336.06;5052346;28;20103;-74
2022/01/27 05:04:07;;;;;;;24.50;7.68;;;;;;;6.38;95.59;102330.78;5052454;28;20021;-75
2022/01/27 05:06:33;;;;;;;18.55;6.85;;;;;;;6.46;95.66;102330.75;5052204;28;20028;-73
2022/01/27 05:08:58;;;;;;;19.08;7.00;;;;;;;6.49;95.40;102336.91;5051769;28;20021;-74
2022/01/27 05:11:36;;;;;;;20.98;8.00;;;;;;;6.50;94.75;102335.16;5052057;28;20021;-74
2022/01/27 05:14:17;;;;;;;16.88;6.82;;;;;;;6.50;94.84;102328.13;5052364;28;20029;-74
2022/01/27 05:16:42;;;;;;;23.05;7.72;;;;;;;6.52;95.39;102323.75;5052568;28;20032;-73
2022/01/27 05:19:08;;;;;;;22.13;7.85;;;;;;;6.51;95.34;102332.50;5051902;28;20025;-74
2022/01/27 05:21:33;;;;;;;20.52;7.63;;;;;;;6.54;94.98;102327.22;5052092;28;20435;-76
2022/01/27 05:24:00;;;;;;;20.65;8.30;;;;;;;6.53;95.33;102320.25;5051528;28;20095;-73
2022/01/27 05:26:25;;;;;;;22.40;7.63;;;;;;;6.54;95.37;102329.84;5052078;28;20590;-75
2022/01/27 05:28:50;;;;;;;22.65;7.80;;;;;;;6.56;95.09;102316.72;5056465;28;20033;-74
2022/01/27 05:31:16;;;;;;;20.63;7.57;;;;;;;6.60;95.21;102314.91;5055792;28;20029;-73
2022/01/27 05:33:41;;;;;;;21.20;8.52;;;;;;;6.60;95.20;102312.28;5055768;28;20440;-74
2022/01/27 05:36:06;;;;;;;23.13;8.30;;;;;;;6.61;96.05;102314.94;5056081;28;20029;-73
2022/01/27 05:38:32;;;;;;;19.58;8.50;;;;;;;6.61;95.65;102311.41;5056095;28;20021;-73
2022/01/27 05:40:57;;;;;;;21.25;7.80;;;;;;;6.63;95.41;102302.63;5055564;28;20029;-73
2022/01/27 05:43:22;;;;;;;25.83;8.55;;;;;;;6.65;95.47;102294.72;5055818;28;20595;-73
2022/01/27 05:45:48;;;;;;;19.10;7.38;;;;;;;6.66;95.38;102289.47;5056100;28;20377;-74
2022/01/27 05:48:13;;;;;;;21.98;7.60;;;;;;;6.70;95.77;102293.81;5055899;28;20477;-74
2022/01/27 05:50:38;;;;;;;22.10;7.57;;;;;;;6.73;95.53;102300.84;5055218;28;20033;-74
2022/01/27 05:53:04;;;;;;;24.52;8.75;;;;;;;6.77;95.36;102285.91;5055355;28;20064;-74
2022/01/27 05:55:29;;;;;;;24.30;7.97;;;;;;;6.79;96.00;102299.91;5055575;28;20112;-74
2022/01/27 05:57:55;;;;;;;26.25;8.23;;;;;;;6.79;95.52;102278.84;5056032;28;20080;-73
2022/01/27 06:00:20;;;;;;;23.60;7.90;;;;;;;6.79;95.94;102289.38;5055708;28;20491;-74
2022/01/27 06:02:46;;;;;;;25.58;7.88;;;;;;;6.79;95.78;102268.31;5054113;28;20481;-74
2022/01/27 06:05:11;;;;;;;22.00;7.55;;;;;;;6.81;95.99;102288.47;5055426;28;20033;-75
2022/01/27 06:07:37;;;;;;;23.70;8.75;;;;;;;6.81;95.73;102277.09;5055516;28;20044;-74
2022/01/27 06:10:03;;;;;;;20.90;7.88;;;;;;;6.83;96.13;102268.31;5055503;28;20423;-73
2022/01/27 06:12:29;;;;;;;19.50;7.95;;;;;;;6.86;96.23;102285.84;5054832;28;20032;-73
2022/01/27 06:14:54;;;;;;;25.73;7.88;;;;;;;6.86;95.87;102276.16;5055151;28;20477;-74
2022/01/27 06:17:20;;;;;;;22.83;7.95;;;;;;;6.87;96.47;102269.16;5055535;28;20376;-74
2022/01/27 06:19:46;;;;;;;21.27;7.40;;;;;;;6.89;96.50;102256.84;5055284;28;20071;-74
2022/01/27 06:22:13;;;;;;;19.20;7.25;;;;;;;6.93;96.46;102260.31;5038955;28;20032;-74
2022/01/27 06:24:42;;;;;;;21.85;8.13;;;;;;;6.91;96.02;102262.13;5041109;28;20025;-74
2022/01/27 06:27:08;;;;;;;23.90;7.38;;;;;;;6.94;96.58;102262.09;5054595;28;20025;-74
2022/01/27 06:29:34;;;;;;;20.77;7.82;;;;;;;6.94;96.40;102254.19;5055131;28;20028;-73
2022/01/27 06:32:00;;;;;;;22.95;7.45;;;;;;;6.95;96.54;102274.38;5055214;28;20036;-74
2022/01/27 06:34:25;;;;;;;23.05;7.50;;;;;;;6.98;96.50;102272.59;5044420;28;20037;-74
2022/01/27 06:36:50;;;;;;;20.30;7.28;;;;;;;6.97;96.62;102270.84;5034960;28;20033;-75
2022/01/27 06:39:16;;;;;;;19.80;7.18;;;;;;;6.99;96.67;102268.19;5034803;28;20099;-74
2022/01/27 06:41:43;;;;;;;21.20;7.40;;;;;;;6.98;97.07;102245.38;5036109;28;20477;-75
2022/01/27 06:44:09;;;;;;;24.45;6.95;;;;;;;7.03;96.90;102255.00;5049801;28;20103;-75
2022/01/27 06:46:35;;;;;;;20.75;7.03;;;;;;;7.07;97.08;102265.50;5054617;28;20108;-73
2022/01/27 06:49:01;;;;;;;21.98;6.68;;;;;;;7.09;96.98;102271.66;5042664;28;20030;-73
2022/01/27 06:51:28;;;;;;;20.00;7.30;;;;;;;7.07;96.94;102266.38;5034725;28;20129;-72
2022/01/27 06:53:53;;;;;;;20.83;7.68;;;;;;;7.11;97.27;102268.13;5044165;28;20037;-75
2022/01/27 06:56:19;;;;;;;19.83;8.05;;;;;;;7.08;98.21;102269.91;5054813;28;20025;-73
2022/01/27 06:58:44;;;;;;;26.75;8.50;;;;;;;7.02;99.13;102269.06;5042134;28;20029;-73
2022/01/27 07:01:09;;;;;;;22.42;7.80;;;;;;;7.00;99.81;102288.38;5041051;28;20441;-73
2022/01/27 07:03:34;;;;;;;22.83;7.78;;;;;;;6.92;100.00;102282.28;5051241;28;20086;-72
2022/01/27 07:06:00;;;;;;;22.15;8.18;;;;;;;6.86;100.00;102291.97;5065588;28;20032;-75
2022/01/27 07:08:25;;;;;;;22.60;7.35;;;;;;;6.79;100.00;102282.38;5074349;28;20445;-73
2022/01/27 07:10:50;;;;;;;27.80;7.97;;;;;;;6.78;100.00;102291.16;5055741;28;20524;-72
2022/01/27 07:13:16;;;;;;;28.23;8.32;;;;;;;6.73;100.00;102292.94;5053759;28;20448;-73
2022/01/27 07:15:41;;;;;;;27.08;8.50;;;;;;;6.68;100.00;102271.03;5053964;28;20116;-73
2022/01/27 07:18:06;;;;;;;23.58;7.85;;;;;;;6.63;100.00;102297.34;5054275;28;20496;-71
2022/01/27 07:20:32;;;;;;;25.92;8.52;;;;;;;6.59;100.00;102294.78;5053439;28;20029;-71
2022/01/27 07:22:57;;;;;;;31.00;8.07;;;;;;;6.54;100.00;102285.13;5053821;28;20021;-71
2022/01/27 07:25:22;;;;;;;23.90;8.20;;;;;;;6.48;100.00;102289.53;5053782;28;20025;-72
2022/01/27 07:27:48;;;;;;;23.98;8.02;;;;;;;6.47;100.00;102282.53;5053746;28;20107;-71
2022/01/27 07:30:13;;;;;;;26.30;8.57;;;;;;;6.47;100.00;102304.47;5054060;28;20033;-70
2022/01/27 07:32:38;;;;;;;23.98;8.23;;;;;;;6.47;100.00;102296.56;5053929;28;20052;-71
2022/01/27 07:35:04;;;;;;;26.27;9.27;;;;;;;6.47;100.00;102303.56;5053876;28;20107;-72
2022/01/27 07:37:30;;;;;;;26.65;9.25;;;;;;;6.49;100.00;102294.78;5053671;28;20040;-72
2022/01/27 07:39:55;;;;;;;34.90;9.10;;;;;;;6.49;100.00;102301.81;5051937;28;20024;-72
2022/01/27 07:42:22;;;;;;;25.27;8.45;;;;;;;6.53;100.00;102300.91;5053661;28;20044;-72
2022/01/27 07:44:47;;;;;;;29.73;9.70;;;;;;;6.53;100.00;102319.34;5053489;28;20086;-72
2022/01/27 07:47:12;;;;;;;25.17;8.65;;;;;;;6.54;100.00;102307.94;5058279;28;20025;-72
2022/01/27 07:49:38;;;;;;;27.98;8.77;;;;;;;6.55;100.00;102307.06;5064961;28;20344;-72
2022/01/27 07:52:03;;;;;;;31.08;9.98;;;;;;;6.57;100.00;102313.19;5061197;28;20040;-72
2022/01/27 07:54:28;;;;;;;26.17;8.77;;;;;;;6.53;100.00;102314.97;5071504;28;20025;-72
2022/01/27 07:56:54;;;;;;;28.52;9.10;;;;;;;6.57;100.00;102286.84;5053694;28;20059;-72
2022/01/27 07:59:19;;;;;;;24.95;7.97;;;;;;;6.56;100.00;102307.06;5053134;28;20027;-72
2022/01/27 08:01:45;;;;;;;25.73;8.25;;;;;;;6.54;100.00;102303.53;5053046;28;20108;-72
2022/01/27 08:04:11;;;;;;;26.55;8.32;;;;;;;6.55;100.00;102313.19;5045392;28;20013;-72
2022/01/27 08:06:37;;;;;;;30.02;9.68;;;;;;;6.52;100.00;102307.06;5047084;28;20119;-72
2022/01/27 08:09:03;;;;;;;30.23;9.38;;;;;;;6.53;100.00;102319.34;5052901;28;20044;-71
2022/01/27 08:11:28;;;;;;;25.55;9.15;;;;;;;6.52;100.00;102314.94;5052958;28;20487;-72
2022/01/27 08:13:53;;;;;;;34.95;10.57;;;;;;;6.55;100.00;102310.56;5053256;28;20029;-72
2022/01/27 08:16:19;;;;;;;29.67;9.20;;;;;;;6.55;100.00;102312.31;5052876;28;20032;-73
2022/01/27 08:18:44;;;;;;;27.98;8.27;;;;;;;6.57;100.00;102313.19;5052790;28;20024;-71
2022/01/27 08:21:10;;;;;;;32.30;8.60;;;;;;;6.59;100.00;102298.25;5053307;28;20071;-72
2022/01/27 08:23:37;;;;;;;25.80;8.10;;;;;;;6.62;100.00;102305.28;5053102;28;20105;-71
2022/01/27 08:26:06;;;;;;;28.95;8.45;;;;;;;6.62;100.00;102311.41;5053254;28;20028;-71
2022/01/27 08:28:39;;;;;;;27.33;8.40;;;;;;;6.67;100.00;102303.50;5052141;28;20123;-71
2022/01/27 08:31:04;;;;;;;28.67;9.13;;;;;;;6.62;100.00;102319.28;5052940;28;20056;-71
2022/01/27 08:33:32;;;;;;;23.15;7.93;;;;;;;6.67;100.00;102314.88;5052582;28;20060;-70
2022/01/27 08:35:58;;;;;;;24.90;8.93;;;;;;;6.67;100.00;102306.97;5053115;28;20021;-72
2022/01/27 08:38:25;;;;;;;26.10;8.20;;;;;;;6.66;100.00;102320.16;5049608;28;20078;-70
2022/01/27 08:40:51;;;;;;;22.67;8.70;;;;;;;6.66;100.00;102323.69;5051863;28;20396;-72
2022/01/27 08:43:16;;;;;;;30.45;9.05;;;;;;;6.66;100.00;102321.06;5054286;28;20028;-73
2022/01/27 08:45:42;;;;;;;32.97;9.02;;;;;;;6.70;100.00;102314.88;5055940;28;20481;-71
2022/01/27 08:48:10;;;;;;;24.70;8.63;;;;;;;6.71;100.00;102308.75;5052382;28;20024;-72
2022/01/27 08:50:35;;;;;;;25.40;8.73;;;;;;;6.70;100.00;102299.09;5052436;28;20017;-71
2022/01/27 08:53:01;;;;;;;27.50;8.85;;;;;;;6.72;100.00;102312.25;5052331;28;20040;-71
2022/01/27 08:55:26;;;;;;;25.95;8.25;;;;;;;6.73;100.00;102312.22;5052706;28;20029;-71
2022/01/27 08:57:51;;;;;;;26.67;7.97;;;;;;;6.73;100.00;102311.38;5052238;28;20052;-71
2022/01/27 09:00:21;;;;;;;25.17;9.18;;;;;;;6.75;100.00;102291.16;5052385;28;20013;-73
2022/01/27 09:02:46;;;;;;;25.33;8.45;;;;;;;6.81;100.00;102314.81;5051790;28;20049;-71
2022/01/27 09:05:13;;;;;;;22.90;7.85;;;;;;;6.78;100.00;102312.22;5052679;28;20031;-72
2022/01/27 09:07:38;;;;;;;18.70;7.22;;;;;;;6.83;100.00;102313.06;5052801;28;20033;-72
2022/01/27 09:10:06;;;;;;;24.55;7.93;;;;;;;6.87;100.00;102311.28;5038236;28;20483;-71
2022/01/27 09:12:32;;;;;;;25.65;8.05;;;;;;;6.86;100.00;102312.16;5052139;28;20060;-72
2022/01/27 09:14:59;;;;;;;25.58;8.88;;;;;;;6.91;100.00;102288.44;5041228;28;20420;-72
2022/01/27 09:17:26;;;;;;;28.30;7.53;;;;;;;6.94;100.00;102307.72;5050029;28;20021;-72
2022/01/27 09:19:52;;;;;;;24.85;8.20;;;;;;;6.95;100.00;102298.94;5051386;28;20712;-71
2022/01/27 09:22:19;;;;;;;22.33;7.38;;;;;;;6.99;100.00;102289.25;5051001;28;20024;-73
2022/01/27 09:24:59;;;;;;;22.83;6.70;;;;;;;7.01;100.00;102293.63;5050992;28;20091;-73
2022/01/27 09:27:26;;;;;;;19.98;7.25;;;;;;;7.03;100.00;102297.16;5051326;28;20067;-72
2022/01/27 09:29:52;;;;;;;26.30;7.95;;;;;;;7.08;100.00;102299.72;5051443;28;20624;-72
2022/01/27 09:32:18;;;;;;;22.27;6.90;;;;;;;7.12;100.00;102290.06;5050872;28;20120;-73
2022/01/27 09:34:45;;;;;;;23.10;7.00;;;;;;;7.21;100.00;102295.25;5051376;28;20021;-73
2022/01/27 09:37:11;;;;;;;27.23;8.02;;;;;;;7.25;100.00;102297.00;5051008;28;20033;-72
2022/01/27 09:39:37;;;;;;;29.77;7.40;;;;;;;7.31;100.00;102304.84;5052064;28;20029;-73
2022/01/27 09:42:05;;;;;;;21.65;6.60;;;;;;;7.35;100.00;102298.69;5051565;28;20033;-72
2022/01/27 09:44:32;;;;;;;24.00;6.40;;;;;;;7.36;100.00;102299.53;5050829;28;20028;-71
2022/01/27 09:47:04;;;;;;;22.05;6.55;;;;;;;7.36;100.00;102308.31;5050897;28;20033;-73
2022/01/27 09:49:40;;;;;;;25.33;6.30;;;;;;;7.40;100.00;102316.22;5033236;28;20478;-73
2022/01/27 09:52:06;;;;;;;21.13;6.88;;;;;;;7.36;100.00;102317.97;5051560;28;20065;-72
2022/01/27 09:54:32;;;;;;;24.50;6.88;;;;;;;7.39;100.00;102302.13;5050661;28;20081;-71
2022/01/27 09:56:58;;;;;;;22.77;6.47;;;;;;;7.45;100.00;102294.19;5035460;28;20030;-72
2022/01/27 09:59:24;;;;;;;20.38;6.32;;;;;;;7.49;100.00;102321.41;5039627;28;20083;-73
2022/01/27 10:02:09;;;;;;;18.45;5.78;;;;;;;7.49;100.00;102311.75;5046614;28;20025;-72
2022/01/27 10:04:52;;;;;;;20.50;6.18;;;;;;;7.46;100.00;102321.44;5048195;28;20025;-72
2022/01/27 10:07:19;;;;;;;17.10;6.10;;;;;;;7.48;100.00;102314.38;5051938;28;20043;-72
2022/01/27 10:10:02;;;;;;;19.90;6.32;;;;;;;7.48;100.00;102310.00;5052274;28;20048;-72
2022/01/27 10:12:37;;;;;;;18.80;5.70;;;;;;;7.50;100.00;102321.38;5045039;28;20104;-72
2022/01/27 10:15:12;;;;;;;20.73;5.90;;;;;;;7.54;100.00;102309.06;5053462;28;20077;-72
2022/01/27 10:17:58;;;;;;;17.40;5.85;;;;;;;7.57;100.00;102323.97;5054138;28;20029;-73
2022/01/27 10:20:23;;;;;;;20.30;6.65;;;;;;;7.57;100.00;102330.13;5055633;28;20444;-73
2022/01/27 10:23:14;;;;;;;24.05;8.25;;;;;;;7.61;100.00;102304.59;5055352;28;20115;-72
2022/01/27 10:25:47;;;;;;;25.55;6.07;;;;;;;7.61;100.00;102310.75;5055223;28;20051;-72
2022/01/27 10:28:29;;;;;;;26.23;6.47;;;;;;;7.61;100.00;102328.31;5043931;28;20195;-73
2022/01/27 10:31:06;;;;;;;23.92;6.70;;;;;;;7.60;100.00;102311.63;5053185;28;20108;-73
2022/01/27 10:33:46;;;;;;;19.58;6.53;;;;;;;7.62;100.00;102330.97;5053526;28;20029;-72
2022/01/27 10:36:15;;;;;;;22.80;5.90;;;;;;;7.67;100.00;102312.44;5055109;28;20058;-73
2022/01/27 10:38:41;;;;;;;16.70;5.43;;;;;;;7.75;100.00;102321.19;5051648;28;20029;-73
2022/01/27 10:41:07;;;;;;;21.35;5.68;;;;;;;7.80;100.00;102326.41;5055502;28;20464;-73
2022/01/27 10:43:33;;;;;;;18.23;6.35;;;;;;;7.82;100.00;102335.19;5055053;28;20052;-72
2022/01/27 10:46:26;;;;;;;15.90;5.50;;;;;;;7.86;100.00;102321.06;5046521;28;20587;-72
2022/01/27 10:49:05;;;;;;;20.88;6.03;;;;;;;7.86;100.00;102329.88;5052856;28;20079;-74
2022/01/27 10:51:39;;;;;;;14.57;5.43;;;;;;;7.89;100.00;102318.41;5053001;28;20072;-72
2022/01/27 10:54:06;;;;;;;19.83;5.10;;;;;;;7.95;100.00;102328.88;5054691;28;20029;-73
2022/01/27 10:56:37;;;;;;;17.40;5.70;;;;;;;8.01;100.00;102346.44;5054525;28;20032;-72
2022/01/27 10:59:05;;;;;;;18.75;4.93;;;;;;;8.04;100.00;102330.56;5056839;28;20021;-72
2022/01/27 11:01:37;;;;;;;16.40;4.72;;;;;;;8.10;100.00;102338.41;5068396;28;20029;-72
2022/01/27 11:04:05;;;;;;;22.17;5.15;;;;;;;8.10;100.00;102340.19;5060822;28;20515;-71
2022/01/27 11:06:33;;;;;;;17.35;5.63;;;;;;;8.15;100.00;102349.78;5065162;28;20031;-72
2022/01/27 11:09:04;;;;;;;14.65;5.90;;;;;;;8.14;100.00;102340.13;5053899;28;20029;-72
2022/01/27 11:11:29;;;;;;;23.00;4.95;;;;;;;8.17;100.00;102326.03;5054649;28;20025;-72
2022/01/27 11:13:55;;;;;;;15.65;4.72;;;;;;;8.22;100.00;102328.63;5054059;28;20029;-73
2022/01/27 11:16:27;;;;;;;15.68;4.75;;;;;;;8.23;100.00;102338.28;5054151;28;20465;-72
2022/01/27 11:19:00;;;;;;;19.77;5.15;;;;;;;8.25;100.00;102328.56;5054266;28;20053;-74
2022/01/27 11:21:36;;;;;;;14.65;4.88;;;;;;;8.27;100.00;102334.72;5054316;28;20055;-72
2022/01/27 11:24:06;;;;;;;14.00;5.07;;;;;;;8.31;100.00;102339.06;5053112;28;20037;-72
2022/01/27 11:26:37;;;;;;;19.00;4.72;;;;;;;8.31;100.00;102324.13;5051991;28;20021;-71
2022/01/27 11:29:04;;;;;;;18.80;5.00;;;;;;;8.39;100.00;102323.16;5046906;28;20037;-72
2022/01/27 11:32:03;;;;;;;14.25;4.40;;;;;;;8.40;100.00;102322.25;5054718;28;20025;-73
2022/01/27 11:34:44;;;;;;;13.18;4.25;;;;;;;8.43;100.00;102323.09;5046014;28;20041;-72
2022/01/27 11:37:09;;;;;;;12.07;4.32;;;;;;;8.61;100.00;102314.09;5052927;28;20542;-72
2022/01/27 11:39:48;;;;;;;16.05;5.05;;;;;;;8.74;100.00;102320.09;5037517;28;20033;-72
2022/01/27 11:42:13;;;;;;;16.65;4.80;;;;;;;8.79;100.00;102320.03;5042968;28;20052;-73
2022/01/27 11:44:43;;;;;;;27.13;5.45;;;;;;;8.81;100.00;102319.13;5053461;28;20052;-74
2022/01/27 11:47:12;;;;;;;14.95;4.45;;;;;;;8.84;100.00;102318.22;5052699;28;20064;-72
2022/01/27 11:52:30;;;;;;;11.65;4.00;;;;;;;9.00;100.00;102327.69;5051816;28;20512;-73
2022/01/27 11:55:17;;;;;;;20.15;4.75;;;;;;;8.94;100.00;102325.13;5034985;28;20117;-73
2022/01/27 11:57:45;;;;;;;12.98;4.20;;;;;;;8.99;100.00;102330.31;5052203;28;20402;-73
2022/01/27 12:00:17;;;;;;;13.90;4.30;;;;;;;8.91;100.00;102326.91;5041859;28;20035;-73
2022/01/27 12:03:01;;;;;;;18.77;4.35;;;;;;;8.93;100.00;102328.66;5035352;28;20036;-73